Time;durP1;ratioP1;P1;durP2;ratioP2;P2;SDS_P1;SDS_P2;PMS_P1;PMS_P2;Temp;Humidity;BMP_temperature;BMP_pressure;BME280_temperature;BME280_humidity;BME280_pressure;Samples;Min_cycle;Max_cycle;Signal;HPM_P1;HPM_P2
2023/05/24 00:00:40;;;;;;;27.13;5.95;;;7.30;99.90;;;;;;5014180;28;20067;-86
2023/05/24 00:03:07;;;;;;;27.45;6.47;;;7.30;99.90;;;;;;5051700;28;20074;-86
2023/05/24 00:05:36;;;;;;;22.13;6.65;;;7.30;99.90;;;;;;4999257;28;20038;-88
2023/05/24 00:08:02;;;;;;;26.50;6.60;;;7.20;99.90;;;;;;5000354;28;20045;-86
2023/05/24 00:10:28;;;;;;;19.95;6.13;;;7.20;99.90;;;;;;5013335;28;20052;-87
2023/05/24 00:12:54;;;;;;;24.30;6.40;;;7.20;99.90;;;;;;4986857;28;20044;-87
2023/05/24 00:15:20;;;;;;;25.48;6.70;;;7.30;99.90;;;;;;5011058;28;20041;-87
2023/05/24 00:17:46;;;;;;;20.55;6.00;;;7.20;99.90;;;;;;5016649;28;20049;-87
2023/05/24 00:20:12;;;;;;;31.02;7.50;;;7.30;99.90;;;;;;4998799;28;20042;-86
2023/05/24 00:22:39;;;;;;;22.52;5.72;;;7.10;99.90;;;;;;5011163;28;20048;-86
2023/05/24 00:25:05;;;;;;;23.02;6.05;;;7.20;99.90;;;;;;5010833;28;20038;-86
2023/05/24 00:27:31;;;;;;;30.92;6.63;;;7.20;99.90;;;;;;5014739;28;20532;-86
2023/05/24 00:29:57;;;;;;;32.10;6.70;;;7.20;99.90;;;;;;5010389;28;20034;-86
2023/05/24 00:32:23;;;;;;;21.30;5.72;;;7.20;99.90;;;;;;4982723;28;20033;-86
2023/05/24 00:34:49;;;;;;;23.67;6.32;;;7.10;99.90;;;;;;4993258;28;20060;-86
2023/05/24 00:37:15;;;;;;;27.08;5.88;;;7.10;99.90;;;;;;5000491;28;20050;-85
2023/05/24 00:39:40;;;;;;;28.58;6.90;;;7.10;99.90;;;;;;4995058;28;20529;-85
2023/05/24 00:42:06;;;;;;;24.52;6.47;;;7.10;99.90;;;;;;5021959;28;20482;-86
2023/05/24 00:44:32;;;;;;;21.85;6.47;;;7.10;99.90;;;;;;4993972;28;20077;-86
2023/05/24 00:46:59;;;;;;;29.60;6.15;;;7.00;99.90;;;;;;5006076;28;20049;-86
2023/05/24 00:49:25;;;;;;;27.65;6.57;;;7.10;99.90;;;;;;5024741;28;20076;-85
2023/05/24 00:51:52;;;;;;;30.08;7.13;;;7.10;99.90;;;;;;4971368;28;20395;-86
2023/05/24 00:54:18;;;;;;;17.88;6.05;;;7.10;99.90;;;;;;5018916;28;20042;-87
2023/05/24 00:56:44;;;;;;;23.23;7.13;;;7.00;99.90;;;;;;5011950;28;20044;-87
2023/05/24 00:59:10;;;;;;;31.77;7.20;;;7.00;99.90;;;;;;4993696;28;20077;-87
2023/05/24 01:01:36;;;;;;;22.52;6.25;;;7.00;99.90;;;;;;5006438;28;20049;-86
2023/05/24 01:04:02;;;;;;;21.55;6.85;;;7.00;99.90;;;;;;4996458;28;20399;-86
2023/05/24 01:06:28;;;;;;;24.83;7.15;;;7.00;99.90;;;;;;5011010;28;20029;-87
2023/05/24 01:09:24;;;;;;;18.40;5.82;;;7.00;99.90;;;;;;4971620;28;20041;-87
2023/05/24 01:12:27;;;;;;;20.80;6.18;;;7.00;99.90;;;;;;5006981;28;20046;-86
2023/05/24 01:15:18;;;;;;;24.17;6.57;;;7.00;99.90;;;;;;4972533;28;20112;-86
2023/05/24 01:18:01;;;;;;;32.55;7.25;;;7.00;99.90;;;;;;4995663;28;20128;-86
2023/05/24 01:20:31;;;;;;;26.00;7.00;;;7.00;99.90;;;;;;5005837;28;20041;-87
2023/05/24 01:22:59;;;;;;;26.20;7.25;;;7.00;99.90;;;;;;5002054;28;20045;-87
2023/05/24 01:25:52;;;;;;;23.27;6.45;;;6.90;99.90;;;;;;5025737;28;20033;-86
2023/05/24 01:28:19;;;;;;;25.83;7.13;;;6.90;99.90;;;;;;5009913;28;20034;-86
2023/05/24 01:30:46;;;;;;;24.27;7.47;;;6.90;99.90;;;;;;5012436;28;20087;-87
2023/05/24 01:33:12;;;;;;;24.80;7.53;;;6.90;99.90;;;;;;5003804;28;20081;-87
2023/05/24 01:35:41;;;;;;;26.95;8.00;;;6.90;99.90;;;;;;4988096;28;20045;-86
2023/05/24 01:38:08;;;;;;;29.92;7.53;;;6.90;99.90;;;;;;4983479;28;20046;-86
2023/05/24 01:40:35;;;;;;;31.67;7.63;;;6.90;99.90;;;;;;5008481;28;20054;-86
2023/05/24 01:43:11;;;;;;;21.50;6.78;;;6.90;99.90;;;;;;5009019;28;20049;-86
2023/05/24 01:45:39;;;;;;;21.25;7.45;;;7.40;99.90;;;;;;5025488;28;20449;-87
2023/05/24 01:48:10;;;;;;;31.75;6.50;;;6.90;99.90;;;;;;5009937;28;20041;-86
2023/05/24 01:50:51;;;;;;;28.20;7.10;;;6.80;99.90;;;;;;5012860;28;20045;-85
2023/05/24 01:53:19;;;;;;;26.23;6.82;;;6.90;99.90;;;;;;5008762;28;20111;-86
2023/05/24 01:55:48;;;;;;;27.58;7.20;;;6.90;99.90;;;;;;4992175;28;20038;-86
2023/05/24 01:58:16;;;;;;;28.27;6.53;;;6.90;99.90;;;;;;4995268;28;20041;-85
2023/05/24 02:00:43;;;;;;;27.65;7.72;;;6.90;99.90;;;;;;4972567;28;20058;-86
2023/05/24 02:03:09;;;;;;;27.17;7.10;;;6.90;99.90;;;;;;4970488;28;20043;-86
2023/05/24 02:05:35;;;;;;;23.90;6.25;;;6.90;99.90;;;;;;5006055;28;20112;-86
2023/05/24 02:08:00;;;;;;;27.13;6.97;;;6.90;99.90;;;;;;4973763;28;20571;-86
2023/05/24 02:10:26;;;;;;;28.75;7.85;;;7.00;99.90;;;;;;4959020;28;20041;-87
2023/05/24 02:12:53;;;;;;;26.92;6.82;;;7.00;99.90;;;;;;4990325;28;20175;-87
2023/05/24 02:15:19;;;;;;;26.83;7.40;;;7.00;99.90;;;;;;4989274;28;20042;-88
2023/05/24 02:17:45;;;;;;;32.10;7.53;;;7.10;99.90;;;;;;4968282;28;20659;-88
2023/05/24 02:20:12;;;;;;;27.15;7.22;;;7.00;99.90;;;;;;4959364;28;20077;-88
2023/05/24 02:22:37;;;;;;;26.88;8.00;;;7.00;99.90;;;;;;4973130;28;20491;-88
2023/05/24 02:25:04;;;;;;;26.00;7.70;;;7.10;99.90;;;;;;4975854;28;20049;-87
2023/05/24 02:27:29;;;;;;;17.40;6.63;;;7.10;99.90;;;;;;4988909;28;20034;-87
2023/05/24 02:29:56;;;;;;;18.70;6.00;;;7.10;99.90;;;;;;4975401;28;20026;-87
2023/05/24 02:32:21;;;;;;;24.40;7.57;;;7.10;99.90;;;;;;4968782;28;20046;-87
2023/05/24 02:34:47;;;;;;;23.58;7.07;;;7.00;99.90;;;;;;4991522;28;20042;-87
2023/05/24 02:37:13;;;;;;;27.98;7.18;;;7.10;99.90;;;;;;4975883;28;20097;-87
2023/05/24 02:39:40;;;;;;;21.70;7.15;;;7.00;99.90;;;;;;4987680;28;20214;-87
2023/05/24 02:42:07;;;;;;;36.25;7.22;;;7.00;99.90;;;;;;4989578;28;20085;-87
2023/05/24 02:44:33;;;;;;;21.38;6.55;;;7.00;99.90;;;;;;4988765;28;20399;-86
2023/05/24 02:46:59;;;;;;;30.13;7.35;;;7.40;99.90;;;;;;4973636;28;20042;-86
2023/05/24 02:49:24;;;;;;;26.55;7.85;;;7.00;99.90;;;;;;4989257;28;20395;-88
2023/05/24 02:51:50;;;;;;;28.55;6.80;;;7.00;99.90;;;;;;4960070;28;20046;-86
2023/05/24 02:54:17;;;;;;;27.00;6.82;;;7.00;99.90;;;;;;4979408;28;20149;-87
2023/05/24 02:56:43;;;;;;;32.17;6.88;;;7.00;99.90;;;;;;4995674;28;20101;-87
2023/05/24 02:59:08;;;;;;;25.40;6.75;;;7.00;99.90;;;;;;4995215;28;20484;-87
2023/05/24 03:01:35;;;;;;;22.13;6.40;;;6.90;99.90;;;;;;5019103;28;20058;-87
2023/05/24 03:04:01;;;;;;;21.95;6.82;;;6.90;99.90;;;;;;4994334;28;20045;-87
2023/05/24 03:06:27;;;;;;;22.23;6.97;;;7.00;99.90;;;;;;5012328;28;20100;-87
2023/05/24 03:08:52;;;;;;;26.90;7.80;;;6.90;99.90;;;;;;5026973;28;20537;-87
2023/05/24 03:11:20;;;;;;;27.38;7.88;;;6.90;99.90;;;;;;5011186;28;20046;-87
2023/05/24 03:13:47;;;;;;;23.08;6.72;;;6.80;99.90;;;;;;5026126;28;20530;-88
2023/05/24 03:16:13;;;;;;;26.20;7.88;;;6.80;99.90;;;;;;4995453;28;20070;-88
2023/05/24 03:18:38;;;;;;;24.15;7.65;;;6.80;99.90;;;;;;4995838;28;20069;-88
2023/05/24 03:21:04;;;;;;;27.42;6.78;;;6.80;99.90;;;;;;4990014;28;20061;-88
2023/05/24 03:23:30;;;;;;;26.30;6.82;;;6.80;99.90;;;;;;5007021;28;20058;-87
2023/05/24 03:25:56;;;;;;;25.63;8.02;;;6.70;99.90;;;;;;4985434;28;20037;-87
2023/05/24 03:28:21;;;;;;;24.80;7.75;;;6.70;99.90;;;;;;5001082;28;20065;-87
2023/05/24 03:30:48;;;;;;;25.92;6.97;;;6.70;99.90;;;;;;4964367;28;20089;-87
2023/05/24 03:33:13;;;;;;;29.75;8.13;;;6.70;99.90;;;;;;5010637;28;20425;-88
2023/05/24 03:35:39;;;;;;;25.50;8.20;;;6.70;99.90;;;;;;4991884;28;20117;-87
2023/05/24 03:38:05;;;;;;;26.60;7.63;;;6.80;99.90;;;;;;4991170;28;20403;-87
2023/05/24 03:40:32;;;;;;;25.73;6.57;;;6.90;99.90;;;;;;4990799;28;20035;-87
2023/05/24 03:42:58;;;;;;;28.58;6.55;;;6.90;99.90;;;;;;4987729;28;20042;-88
2023/05/24 03:45:24;;;;;;;25.00;7.85;;;7.00;99.90;;;;;;5027791;28;20045;-88
2023/05/24 03:47:49;;;;;;;23.45;6.65;;;7.00;99.90;;;;;;5011028;28;20121;-87
2023/05/24 03:50:15;;;;;;;24.73;8.00;;;7.00;99.90;;;;;;4979317;28;20050;-88
2023/05/24 03:52:41;;;;;;;24.13;7.50;;;7.10;99.90;;;;;;4980828;28;20065;-87
2023/05/24 03:55:07;;;;;;;23.40;6.90;;;7.10;99.90;;;;;;5018012;28;20045;-87
2023/05/24 03:57:33;;;;;;;29.15;7.22;;;7.10;99.90;;;;;;5009344;28;20061;-87
2023/05/24 03:59:59;;;;;;;23.10;7.57;;;7.20;99.90;;;;;;5008611;28;20073;-87
2023/05/24 04:02:25;;;;;;;33.58;7.88;;;7.20;99.90;;;;;;5012408;28;20073;-87
2023/05/24 04:04:51;;;;;;;23.23;6.43;;;7.30;99.90;;;;;;5012652;28;20045;-87
2023/05/24 04:07:17;;;;;;;19.30;6.18;;;7.30;99.90;;;;;;5002262;28;20034;-87
2023/05/24 04:09:43;;;;;;;24.02;6.85;;;7.40;99.90;;;;;;4981191;28;20079;-87
2023/05/24 04:12:08;;;;;;;27.55;6.55;;;7.40;99.90;;;;;;4996882;28;20045;-86
2023/05/24 04:14:34;;;;;;;24.33;6.05;;;7.50;99.90;;;;;;5012189;28;20034;-84
2023/05/24 04:17:03;;;;;;;21.05;6.03;;;7.60;99.90;;;;;;5022383;28;20147;-87
2023/05/24 04:19:28;;;;;;;21.75;6.60;;;7.60;99.90;;;;;;4988825;28;20053;-85
2023/05/24 04:21:54;;;;;;;17.65;5.68;;;7.70;99.90;;;;;;5000736;28;20033;-86
2023/05/24 04:24:20;;;;;;;22.73;6.72;;;7.80;99.90;;;;;;4982988;28;20505;-85
2023/05/24 04:26:46;;;;;;;25.48;6.35;;;7.90;99.90;;;;;;5001382;28;21931;-85
2023/05/24 04:29:13;;;;;;;19.70;5.93;;;8.00;99.90;;;;;;4974119;28;20041;-89
2023/05/24 04:31:42;;;;;;;20.08;5.93;;;8.00;99.90;;;;;;4996897;28;20049;-87
2023/05/24 04:34:08;;;;;;;20.90;6.32;;;8.10;99.90;;;;;;5008504;28;20410;-86
2023/05/24 04:36:35;;;;;;;25.90;6.55;;;8.20;99.90;;;;;;5014800;28;20465;-89
2023/05/24 04:39:03;;;;;;;19.20;5.82;;;8.30;99.90;;;;;;5006081;28;20044;-88
2023/05/24 04:41:30;;;;;;;19.05;5.45;;;8.30;99.90;;;;;;4967714;28;20100;-88
2023/05/24 04:43:58;;;;;;;21.17;5.55;;;8.30;99.90;;;;;;5010839;28;20049;-88
2023/05/24 04:46:25;;;;;;;27.75;6.15;;;8.40;99.90;;;;;;5005960;28;20060;-88
2023/05/24 04:48:51;;;;;;;25.52;5.97;;;8.40;99.90;;;;;;4978319;28;20046;-88
2023/05/24 04:51:17;;;;;;;23.02;5.95;;;8.40;99.90;;;;;;5008576;28;20069;-88
2023/05/24 04:53:43;;;;;;;19.92;5.68;;;8.50;99.90;;;;;;5013706;28;20486;-88
2023/05/24 04:56:08;;;;;;;15.63;4.95;;;8.50;99.90;;;;;;4998675;28;20037;-90
2023/05/24 04:58:34;;;;;;;24.58;6.43;;;8.50;99.90;;;;;;4961697;28;20037;-88
2023/05/24 05:01:01;;;;;;;26.83;5.50;;;8.60;99.90;;;;;;4966575;28;20103;-88
2023/05/24 05:03:27;;;;;;;21.77;5.85;;;8.60;99.90;;;;;;4990083;28;20042;-87
2023/05/24 05:05:52;;;;;;;19.65;5.75;;;8.70;99.90;;;;;;4955020;28;20130;-91
2023/05/24 05:08:19;;;;;;;17.75;5.18;;;8.70;99.90;;;;;;4979734;28;20030;-88
2023/05/24 05:10:45;;;;;;;22.23;5.88;;;8.70;99.90;;;;;;4979448;28;20033;-93
2023/05/24 05:13:11;;;;;;;18.17;5.75;;;8.80;99.90;;;;;;4996391;28;20120;-88
2023/05/24 05:15:36;;;;;;;20.27;5.38;;;8.80;99.90;;;;;;5007840;28;20045;-87
2023/05/24 05:18:02;;;;;;;20.65;5.32;;;8.90;99.90;;;;;;4994010;28;20038;-88
2023/05/24 05:20:28;;;;;;;25.98;6.95;;;9.00;99.90;;;;;;4997911;28;20041;-87
2023/05/24 05:22:53;;;;;;;18.98;5.55;;;9.00;99.90;;;;;;4980688;28;20099;-89
2023/05/24 05:25:20;;;;;;;23.55;5.93;;;9.10;99.90;;;;;;5009026;28;20120;-88
2023/05/24 05:27:45;;;;;;;20.58;5.10;;;9.20;99.90;;;;;;4979530;28;20046;-88
2023/05/24 05:30:12;;;;;;;20.40;5.13;;;9.20;99.90;;;;;;5009002;28;20045;-86
2023/05/24 05:32:37;;;;;;;16.42;5.50;;;9.30;99.90;;;;;;5033993;28;20041;-86
2023/05/24 05:35:04;;;;;;;18.42;4.90;;;9.20;99.90;;;;;;5013794;28;20045;-86
2023/05/24 05:37:30;;;;;;;14.82;4.68;;;9.20;99.90;;;;;;5005710;28;20117;-89
2023/05/24 05:39:56;;;;;;;19.52;4.80;;;9.20;99.90;;;;;;4963472;28;20128;-89
2023/05/24 05:42:21;;;;;;;25.90;5.38;;;9.20;99.90;;;;;;5001764;28;20111;-89
2023/05/24 05:44:47;;;;;;;13.20;5.00;;;9.30;99.90;;;;;;4988719;28;20088;-88
2023/05/24 05:47:13;;;;;;;18.05;5.15;;;9.30;99.90;;;;;;5000514;28;20120;-87
2023/05/24 05:49:38;;;;;;;17.40;4.82;;;9.70;99.90;;;;;;4979675;28;20037;-87
2023/05/24 05:52:05;;;;;;;22.60;4.85;;;9.50;99.90;;;;;;4988786;28;20454;-88
2023/05/24 05:54:30;;;;;;;21.95;5.80;;;9.60;99.90;;;;;;5009853;28;20161;-89
2023/05/24 05:56:57;;;;;;;14.82;4.28;;;9.70;99.90;;;;;;4995774;28;20539;-90
2023/05/24 05:59:23;;;;;;;20.10;4.60;;;9.80;99.90;;;;;;5002733;28;20065;-89
2023/05/24 06:01:49;;;;;;;14.13;5.03;;;9.80;99.90;;;;;;5013731;28;20065;-88
2023/05/24 06:04:15;;;;;;;20.35;4.90;;;9.90;99.90;;;;;;5007797;28;20038;-87
2023/05/24 06:06:43;;;;;;;18.63;4.32;;;10.00;99.90;;;;;;5020248;28;20057;-91
2023/05/24 06:09:08;;;;;;;16.08;4.03;;;10.10;99.90;;;;;;5007081;28;20085;-88
2023/05/24 06:11:34;;;;;;;14.77;4.75;;;10.30;99.90;;;;;;4995581;28;20447;-88
2023/05/24 06:14:00;;;;;;;19.10;5.00;;;10.40;99.90;;;;;;4962029;28;20045;-86
2023/05/24 06:16:26;;;;;;;15.95;5.57;;;10.50;99.90;;;;;;4955643;28;20038;-87
2023/05/24 06:18:52;;;;;;;19.10;4.22;;;10.50;99.90;;;;;;4943381;28;20177;-88
2023/05/24 06:21:17;;;;;;;19.35;4.80;;;10.50;99.90;;;;;;4997914;28;20097;-89
2023/05/24 06:23:43;;;;;;;16.73;4.63;;;10.60;99.90;;;;;;4973190;28;20034;-88
2023/05/24 06:26:09;;;;;;;19.80;4.07;;;10.60;99.90;;;;;;4953445;28;20488;-89
2023/05/24 06:28:38;;;;;;;23.23;5.07;;;10.70;99.90;;;;;;4994705;28;20546;-87
2023/05/24 06:31:06;;;;;;;16.20;4.40;;;10.70;99.90;;;;;;4977182;28;20065;-86
2023/05/24 06:33:32;;;;;;;24.42;4.70;;;10.90;99.90;;;;;;4976883;28;20041;-88
2023/05/24 06:35:58;;;;;;;15.43;4.75;;;10.80;99.90;;;;;;4966191;28;20060;-85
2023/05/24 06:38:23;;;;;;;20.63;5.40;;;11.00;99.90;;;;;;5002184;28;20101;-86
2023/05/24 06:40:50;;;;;;;16.98;4.03;;;11.10;99.90;;;;;;4956959;28;20092;-88
2023/05/24 06:43:16;;;;;;;15.43;5.35;;;11.30;99.90;;;;;;5002790;28;20061;-87
2023/05/24 06:45:42;;;;;;;23.58;4.78;;;11.40;99.90;;;;;;4970289;28;20034;-86
2023/05/24 06:48:08;;;;;;;24.58;4.38;;;11.40;99.90;;;;;;4999684;28;20038;-85
2023/05/24 06:50:35;;;;;;;16.40;4.65;;;11.40;99.90;;;;;;4989932;28;20090;-87
2023/05/24 06:53:01;;;;;;;15.75;4.28;;;11.50;99.90;;;;;;5015358;28;20513;-85
2023/05/24 06:55:27;;;;;;;17.77;5.40;;;11.50;99.90;;;;;;4988647;28;20041;-85
2023/05/24 06:57:53;;;;;;;12.68;4.53;;;11.60;99.90;;;;;;5011696;28;20077;-86
2023/05/24 07:00:21;;;;;;;17.08;4.50;;;11.60;99.90;;;;;;4947808;28;20065;-86
2023/05/24 07:02:47;;;;;;;16.73;5.30;;;11.60;99.90;;;;;;4977870;28;20053;-86
2023/05/24 07:05:12;;;;;;;13.18;4.15;;;11.60;99.90;;;;;;4985340;28;20050;-85
2023/05/24 07:07:42;;;;;;;18.50;5.00;;;11.60;99.90;;;;;;4996127;28;20129;-85
2023/05/24 07:10:09;;;;;;;17.67;4.05;;;11.60;99.90;;;;;;4995718;28;20045;-85
2023/05/24 07:12:36;;;;;;;16.15;4.53;;;11.70;99.90;;;;;;5010908;28;20040;-85
2023/05/24 07:15:03;;;;;;;17.05;4.38;;;11.80;99.90;;;;;;4978060;28;20132;-84
2023/05/24 07:17:29;;;;;;;15.15;4.63;;;11.80;99.90;;;;;;4979251;28;20045;-86
2023/05/24 07:19:56;;;;;;;16.08;4.47;;;11.90;99.90;;;;;;4995664;28;20634;-86
2023/05/24 07:22:24;;;;;;;14.27;4.40;;;11.90;99.90;;;;;;4995676;28;20073;-85
2023/05/24 07:24:50;;;;;;;14.75;4.32;;;12.00;99.90;;;;;;4995581;28;20656;-84
2023/05/24 07:27:15;;;;;;;21.65;4.68;;;11.90;99.90;;;;;;4994780;28;20041;-85
2023/05/24 07:29:41;;;;;;;12.85;3.75;;;11.80;99.90;;;;;;4993407;28;20038;-84
2023/05/24 07:32:07;;;;;;;19.38;4.63;;;11.90;99.90;;;;;;4994126;28;20038;-85
2023/05/24 07:34:33;;;;;;;18.98;4.30;;;11.90;99.90;;;;;;4978349;28;20041;-83
2023/05/24 07:37:00;;;;;;;25.55;5.50;;;11.90;99.90;;;;;;4962856;28;20113;-84
2023/05/24 07:39:26;;;;;;;16.20;4.72;;;11.90;99.90;;;;;;4978288;28;20495;-84
2023/05/24 07:41:55;;;;;;;15.93;4.20;;;12.00;99.90;;;;;;4988141;28;20042;-84
2023/05/24 07:44:22;;;;;;;18.98;4.63;;;11.90;99.90;;;;;;4992797;28;20038;-84
2023/05/24 07:46:48;;;;;;;24.75;4.63;;;11.80;99.90;;;;;;4994814;28;20046;-84
2023/05/24 07:49:14;;;;;;;19.60;4.80;;;11.80;99.90;;;;;;4994297;28;20030;-84
2023/05/24 07:51:40;;;;;;;16.95;4.25;;;11.70;99.90;;;;;;4995258;28;20506;-84
2023/05/24 07:54:49;;;;;;;18.92;4.25;;;11.70;99.90;;;;;;4995151;28;20430;-84
2023/05/24 07:57:15;;;;;;;13.15;4.45;;;11.70;99.90;;;;;;4993062;28;20559;-85
2023/05/24 07:59:40;;;;;;;21.40;5.05;;;11.70;99.90;;;;;;4977842;28;20041;-84
2023/05/24 08:02:10;;;;;;;11.77;3.83;;;11.80;99.90;;;;;;5005657;28;20118;-84
2023/05/24 08:04:36;;;;;;;15.07;4.50;;;12.00;99.90;;;;;;4982691;28;20052;-83
2023/05/24 08:07:02;;;;;;;16.85;4.18;;;12.10;99.90;;;;;;4973589;28;20407;-84
2023/05/24 08:09:35;;;;;;;17.13;3.90;;;12.20;99.90;;;;;;4983778;28;20065;-84
2023/05/24 08:12:02;;;;;;;17.33;5.28;;;12.20;99.90;;;;;;5014126;28;20114;-84
2023/05/24 08:14:28;;;;;;;16.60;4.60;;;12.30;99.90;;;;;;5015069;28;20052;-83
2023/05/24 08:16:53;;;;;;;15.13;3.42;;;12.40;99.90;;;;;;4992146;28;20037;-84
2023/05/24 08:19:19;;;;;;;12.40;3.50;;;12.50;99.90;;;;;;5011233;28;20411;-84
2023/05/24 08:21:45;;;;;;;13.35;3.20;;;12.70;99.90;;;;;;4997357;28;20402;-84
2023/05/24 08:24:11;;;;;;;13.48;3.70;;;13.00;99.90;;;;;;4996781;28;20037;-84
2023/05/24 08:26:37;;;;;;;9.00;3.58;;;13.40;99.90;;;;;;4997631;28;20100;-83
2023/05/24 08:29:03;;;;;;;9.95;3.55;;;13.80;99.90;;;;;;4996812;28;20033;-84
2023/05/24 08:31:31;;;;;;;12.82;3.53;;;14.20;99.90;;;;;;5013729;28;20040;-83
2023/05/24 08:33:57;;;;;;;9.32;3.28;;;14.30;99.90;;;;;;4996331;28;20045;-84
2023/05/24 08:36:23;;;;;;;12.55;3.65;;;14.20;99.90;;;;;;5007537;28;20119;-84
2023/05/24 08:38:49;;;;;;;14.30;3.72;;;14.00;99.90;;;;;;4993336;28;20096;-84
2023/05/24 08:41:14;;;;;;;10.32;3.47;;;13.90;99.90;;;;;;4998048;28;20037;-84
2023/05/24 08:43:42;;;;;;;12.10;3.70;;;13.90;99.90;;;;;;5029617;28;20052;-84
2023/05/24 08:46:09;;;;;;;14.68;3.63;;;14.10;99.90;;;;;;4993149;28;20037;-84
2023/05/24 08:48:45;;;;;;;9.27;4.13;;;14.40;99.90;;;;;;5009778;28;20037;-84
2023/05/24 08:51:14;;;;;;;10.65;2.95;;;14.40;99.90;;;;;;4990582;28;20045;-84
2023/05/24 08:53:40;;;;;;;9.90;3.10;;;14.40;99.90;;;;;;4996932;28;20041;-85
2023/05/24 08:56:09;;;;;;;8.02;2.72;;;14.30;99.90;;;;;;4996795;28;20524;-84
2023/05/24 08:58:39;;;;;;;10.25;3.05;;;13.90;99.50;;;;;;4997108;28;20044;-83
2023/05/24 09:01:06;;;;;;;8.45;2.85;;;13.80;99.90;;;;;;5004021;28;20057;-84
2023/05/24 09:03:33;;;;;;;11.35;3.40;;;13.70;99.90;;;;;;4989550;28;20048;-83
2023/05/24 09:06:00;;;;;;;15.05;3.72;;;13.60;99.90;;;;;;5013170;28;20030;-83
2023/05/24 09:08:27;;;;;;;11.68;3.20;;;13.50;99.90;;;;;;4995711;28;20047;-83
2023/05/24 09:10:54;;;;;;;8.65;3.40;;;13.40;99.90;;;;;;4991838;28;20105;-83
2023/05/24 09:13:22;;;;;;;16.25;3.78;;;13.50;99.90;;;;;;5013168;28;20449;-84
2023/05/24 09:15:48;;;;;;;15.90;5.00;;;13.50;99.90;;;;;;4986089;28;20121;-83
2023/05/24 09:18:14;;;;;;;8.35;3.47;;;13.60;99.90;;;;;;5005020;28;20133;-84
2023/05/24 09:20:40;;;;;;;9.85;3.28;;;13.60;99.90;;;;;;4995854;28;20072;-84
2023/05/24 09:23:07;;;;;;;17.67;4.45;;;13.50;99.90;;;;;;5012742;28;20053;-84
2023/05/24 09:25:33;;;;;;;12.95;3.83;;;13.50;99.90;;;;;;4980107;28;20498;-84
2023/05/24 09:28:06;;;;;;;16.83;3.80;;;13.60;99.90;;;;;;4995952;28;20080;-84
2023/05/24 09:30:32;;;;;;;9.68;3.22;;;13.60;99.90;;;;;;5008241;28;20034;-84
2023/05/24 09:33:00;;;;;;;10.20;3.15;;;13.70;99.90;;;;;;4983925;28;20120;-84
2023/05/24 09:35:27;;;;;;;10.10;3.97;;;13.70;99.90;;;;;;5012625;28;20620;-85
2023/05/24 09:37:58;;;;;;;17.20;4.35;;;13.80;99.90;;;;;;5012938;28;20045;-84
2023/05/24 09:40:25;;;;;;;12.80;4.63;;;13.80;99.90;;;;;;4996290;28;20479;-84
2023/05/24 09:43:11;;;;;;;10.32;3.45;;;13.80;99.90;;;;;;5028889;28;20817;-85
2023/05/24 09:45:48;;;;;;;15.55;3.85;;;13.80;99.90;;;;;;4985959;28;20140;-84
2023/05/24 09:48:16;;;;;;;10.55;3.67;;;13.70;99.90;;;;;;4997190;28;20136;-84
2023/05/24 09:50:46;;;;;;;18.35;3.80;;;13.60;99.90;;;;;;4988245;28;20042;-84
2023/05/24 09:53:12;;;;;;;12.73;3.65;;;13.50;99.90;;;;;;4997318;28;20042;-84
2023/05/24 09:55:37;;;;;;;13.60;3.47;;;13.60;99.90;;;;;;4988228;28;20045;-84
2023/05/24 09:58:07;;;;;;;10.13;3.45;;;13.70;99.90;;;;;;5003842;28;20041;-84
2023/05/24 10:00:35;;;;;;;15.00;4.07;;;13.80;99.90;;;;;;4992987;28;20120;-85
2023/05/24 10:03:13;;;;;;;11.18;2.83;;;13.90;99.90;;;;;;4987199;28;20603;-87
2023/05/24 10:05:43;;;;;;;16.63;3.45;;;13.90;99.90;;;;;;4995972;28;20676;-86
2023/05/24 10:08:10;;;;;;;9.35;3.97;;;13.90;99.90;;;;;;5012851;28;20029;-85
2023/05/24 10:10:36;;;;;;;10.30;3.00;;;13.80;99.90;;;;;;4978960;28;20042;-86
2023/05/24 10:13:02;;;;;;;10.40;3.17;;;13.90;99.90;;;;;;5009777;28;20033;-84
2023/05/24 10:15:29;;;;;;;14.23;3.55;;;13.90;99.90;;;;;;5023599;28;20065;-86
2023/05/24 10:17:56;;;;;;;12.80;3.65;;;14.00;99.90;;;;;;5011397;28;20601;-85
2023/05/24 10:20:23;;;;;;;10.40;3.17;;;14.10;99.90;;;;;;5002312;28;20483;-90
2023/05/24 10:23:02;;;;;;;15.63;4.05;;;14.20;99.90;;;;;;4998815;28;20056;-83
2023/05/24 10:25:31;;;;;;;13.50;3.50;;;14.30;99.90;;;;;;5001231;28;20084;-82
2023/05/24 10:28:05;;;;;;;11.02;3.63;;;14.50;99.90;;;;;;5015540;28;20041;-83
2023/05/24 10:30:36;;;;;;;10.30;3.25;;;14.60;99.90;;;;;;5015267;28;20502;-84
2023/05/24 10:33:05;;;;;;;8.27;3.40;;;14.50;99.90;;;;;;5017217;28;20414;-84
2023/05/24 10:35:32;;;;;;;9.45;3.08;;;14.40;99.90;;;;;;5017653;28;20088;-84
2023/05/24 10:37:58;;;;;;;9.07;2.95;;;14.40;99.90;;;;;;5000281;28;20080;-84
2023/05/24 10:40:25;;;;;;;8.13;2.92;;;14.30;99.90;;;;;;5001106;28;20065;-84
2023/05/24 10:42:53;;;;;;;11.95;3.78;;;14.40;99.90;;;;;;5016456;28;20045;-83
2023/05/24 10:45:30;;;;;;;8.95;3.42;;;14.60;99.90;;;;;;5017036;28;20135;-84
2023/05/24 10:47:59;;;;;;;11.73;3.97;;;14.70;99.90;;;;;;4990844;28;20124;-84
2023/05/24 10:50:28;;;;;;;10.82;3.88;;;14.80;99.90;;;;;;4998420;28;20069;-84
2023/05/24 10:53:14;;;;;;;12.98;4.15;;;14.90;99.90;;;;;;4999357;28;20072;-85
2023/05/24 10:56:02;;;;;;;11.32;3.40;;;14.90;99.90;;;;;;5008854;28;20073;-85
2023/05/24 10:58:50;;;;;;;11.57;3.05;;;14.90;99.90;;;;;;5017244;28;20040;-84
2023/05/24 11:01:30;;;;;;;11.23;3.58;;;14.90;99.90;;;;;;5017140;28;20052;-84
2023/05/24 11:04:15;;;;;;;11.77;3.25;;;14.90;99.90;;;;;;5014377;28;20037;-85
2023/05/24 11:07:00;;;;;;;9.75;3.45;;;14.80;99.90;;;;;;4998604;28;20438;-85
2023/05/24 11:09:26;;;;;;;11.02;3.38;;;14.80;99.90;;;;;;5009625;28;20065;-84
2023/05/24 11:12:07;;;;;;;11.40;3.17;;;14.80;99.90;;;;;;4990714;28;20038;-85
2023/05/24 11:14:38;;;;;;;8.63;3.30;;;14.80;99.90;;;;;;4977188;28;20044;-85
2023/05/24 11:17:05;;;;;;;10.57;3.67;;;14.80;99.90;;;;;;5020187;28;20567;-86
2023/05/24 11:19:33;;;;;;;10.65;3.67;;;14.70;99.90;;;;;;5012667;28;20046;-85
2023/05/24 11:22:03;;;;;;;9.82;3.35;;;14.60;99.90;;;;;;4988490;28;20064;-86
2023/05/24 11:24:29;;;;;;;12.23;3.67;;;14.40;99.90;;;;;;5010381;28;20047;-85
2023/05/24 11:26:55;;;;;;;11.48;3.63;;;14.20;99.90;;;;;;5012478;28;20034;-85
2023/05/24 11:29:22;;;;;;;12.25;4.10;;;14.10;99.90;;;;;;5010320;28;20108;-85
2023/05/24 11:31:53;;;;;;;10.93;3.60;;;14.10;99.90;;;;;;4981191;28;20502;-86
2023/05/24 11:34:23;;;;;;;7.93;3.22;;;14.10;99.90;;;;;;5006610;28;20060;-86
2023/05/24 11:36:50;;;;;;;12.00;3.28;;;14.20;99.90;;;;;;5004312;28;20053;-86
2023/05/24 11:39:17;;;;;;;9.10;3.63;;;14.20;99.90;;;;;;5009931;28;20085;-87
2023/05/24 11:41:43;;;;;;;12.07;3.50;;;14.30;99.90;;;;;;4992567;28;20064;-85
2023/05/24 11:44:10;;;;;;;10.15;3.55;;;14.40;99.90;;;;;;4979239;28;20113;-86
2023/05/24 11:46:38;;;;;;;14.48;3.55;;;14.60;99.90;;;;;;4996938;28;20060;-86
2023/05/24 11:49:05;;;;;;;8.25;3.38;;;14.60;99.90;;;;;;4996528;28;20100;-86
2023/05/24 11:51:32;;;;;;;12.20;3.22;;;14.70;99.90;;;;;;5010102;28;20041;-85
2023/05/24 11:53:59;;;;;;;11.13;3.78;;;14.70;99.90;;;;;;5028996;28;20111;-86
2023/05/24 11:56:27;;;;;;;9.55;3.22;;;14.70;99.90;;;;;;5008550;28;20984;-85
2023/05/24 11:59:10;;;;;;;13.38;3.80;;;14.70;99.90;;;;;;5016707;28;20406;-86
2023/05/24 12:01:36;;;;;;;7.95;3.00;;;14.70;99.90;;;;;;4998027;28;20065;-85
2023/05/24 12:04:04;;;;;;;17.00;3.45;;;14.70;99.90;;;;;;4983268;28;20052;-85
2023/05/24 12:06:41;;;;;;;11.40;3.13;;;14.70;99.90;;;;;;4999906;28;20268;-86
2023/05/24 12:09:12;;;;;;;9.55;3.33;;;14.70;99.90;;;;;;5014231;28;20040;-86
2023/05/24 12:11:43;;;;;;;10.27;3.38;;;14.80;99.90;;;;;;4997177;28;20506;-85
2023/05/24 12:14:38;;;;;;;12.38;3.60;;;14.90;99.90;;;;;;4999035;28;20033;-85
2023/05/24 12:17:05;;;;;;;14.48;4.40;;;15.00;99.90;;;;;;5005188;28;20046;-86
2023/05/24 12:19:35;;;;;;;10.15;3.53;;;15.00;99.90;;;;;;4996252;28;20042;-85
2023/05/24 12:22:05;;;;;;;13.80;4.32;;;15.10;99.90;;;;;;5011002;28;20041;-85
2023/05/24 12:24:31;;;;;;;7.18;3.10;;;15.30;99.90;;;;;;5002577;28;20043;-85
2023/05/24 12:27:05;;;;;;;11.20;3.58;;;15.50;99.90;;;;;;5000803;28;20029;-86
2023/05/24 12:29:39;;;;;;;15.07;3.80;;;15.60;99.90;;;;;;5020036;28;20044;-86
2023/05/24 12:32:10;;;;;;;13.32;3.88;;;15.70;99.10;;;;;;5033760;28;20056;-85
2023/05/24 12:34:36;;;;;;;11.68;3.75;;;15.90;99.60;;;;;;5024613;28;20045;-85
2023/05/24 12:37:02;;;;;;;11.48;3.80;;;15.90;99.50;;;;;;4998201;28;20133;-85
2023/05/24 12:39:35;;;;;;;8.55;2.75;;;16.10;99.80;;;;;;4998653;28;20040;-85
2023/05/24 12:42:02;;;;;;;8.82;3.13;;;16.30;99.60;;;;;;5033781;28;20138;-85
2023/05/24 12:44:34;;;;;;;8.70;2.60;;;16.50;99.90;;;;;;5003819;28;20049;-84
2023/05/24 12:47:02;;;;;;;10.77;3.50;;;16.80;99.70;;;;;;5006670;28;20040;-86